createdAt,value
2018-06-04T00:01:04.158Z,19.42
2018-06-04T00:03:35.188Z,19.40
2018-06-04T00:06:05.944Z,19.46
2018-06-04T00:08:36.773Z,19.31
2018-06-04T00:11:07.783Z,19.33
2018-06-04T00:13:38.608Z,19.06
2018-06-04T00:16:09.776Z,18.97
2018-06-04T00:18:40.583Z,18.96
2018-06-04T00:21:11.339Z,18.93
2018-06-04T00:23:42.008Z,19.02
2018-06-04T00:26:12.826Z,19.14
2018-06-04T00:28:43.484Z,19.11
2018-06-04T00:31:14.412Z,18.96
2018-06-04T00:33:45.040Z,18.74
2018-06-04T00:36:15.853Z,18.76
2018-06-04T00:38:46.602Z,18.81
2018-06-04T00:41:17.371Z,18.90
2018-06-04T00:43:48.286Z,19.02
2018-06-04T00:46:19.312Z,19.14
2018-06-04T00:48:50.252Z,19.28
2018-06-04T00:51:21.121Z,19.42
2018-06-04T00:53:52.125Z,19.31
2018-06-04T00:56:23.574Z,19.31
2018-06-04T00:58:54.570Z,19.33
2018-06-04T01:01:25.214Z,19.33
2018-06-04T01:03:55.711Z,19.32
2018-06-04T01:06:26.593Z,19.45
2018-06-04T01:08:57.602Z,19.48
2018-06-04T01:11:28.443Z,19.51
2018-06-04T01:13:59.347Z,19.67
2018-06-04T01:16:30.051Z,19.78
2018-06-04T01:19:00.871Z,19.77
2018-06-04T01:21:31.632Z,19.76
2018-06-04T01:24:02.662Z,19.61
2018-06-04T01:26:33.427Z,19.50
2018-06-04T01:29:04.320Z,19.56
2018-06-04T01:31:35.169Z,19.40
2018-06-04T01:34:06.008Z,19.21
2018-06-04T01:36:36.508Z,19.31
2018-06-04T01:39:08.756Z,19.37
2018-06-04T01:41:39.587Z,19.41
2018-06-04T01:44:10.494Z,19.27
2018-06-04T01:46:41.309Z,19.27
2018-06-04T01:49:11.683Z,19.28
2018-06-04T01:51:42.514Z,19.19
2018-06-04T01:54:13.201Z,19.24
2018-06-04T01:56:43.981Z,19.28
2018-06-04T01:59:14.569Z,19.21
2018-06-04T02:01:45.445Z,19.14
2018-06-04T02:04:15.910Z,19.10
2018-06-04T02:06:46.823Z,18.99
2018-06-04T02:09:17.682Z,18.77
2018-06-04T02:11:48.716Z,18.69
2018-06-04T02:14:19.562Z,18.75
2018-06-04T02:16:50.476Z,18.86
2018-06-04T02:19:21.440Z,18.96
2018-06-04T02:21:52.289Z,19.06
2018-06-04T02:24:23.171Z,19.21
2018-06-04T02:26:53.999Z,19.28
2018-06-04T02:29:24.877Z,19.32
2018-06-04T02:31:55.875Z,19.41
2018-06-04T02:34:26.766Z,19.48
2018-06-04T02:36:57.063Z,19.43
2018-06-04T02:39:28.056Z,19.43
2018-06-04T02:41:58.936Z,19.33
2018-06-04T02:44:29.783Z,19.17
2018-06-04T02:47:00.909Z,18.83
2018-06-04T02:49:31.651Z,17.90
2018-06-04T02:52:02.213Z,18.09
2018-06-04T02:54:33.071Z,18.39
2018-06-04T02:57:03.822Z,18.61
2018-06-04T02:59:34.789Z,18.80
2018-06-04T03:02:05.766Z,18.60
2018-06-04T03:04:36.320Z,18.68
2018-06-04T03:07:07.132Z,18.83
2018-06-04T03:09:37.212Z,18.89
2018-06-04T03:12:08.006Z,18.92
2018-06-04T03:14:38.995Z,19.03
2018-06-04T03:17:09.716Z,19.06
2018-06-04T03:19:40.678Z,19.08
2018-06-04T03:22:11.649Z,19.13
2018-06-04T03:24:42.149Z,19.21
2018-06-04T03:27:13.928Z,19.20
2018-06-04T03:29:44.600Z,19.24
2018-06-04T03:32:16.024Z,19.40
2018-06-04T03:34:47.244Z,19.46
2018-06-04T03:37:17.781Z,19.45
2018-06-04T03:39:49.142Z,19.48
2018-06-04T03:42:19.613Z,19.55
2018-06-04T03:44:50.663Z,19.67
2018-06-04T03:47:21.685Z,19.77
2018-06-04T03:49:52.385Z,19.77
2018-06-04T03:52:22.378Z,19.87
2018-06-04T03:54:53.153Z,19.91
2018-06-04T03:57:24.050Z,20.11
2018-06-04T03:59:54.876Z,20.16
2018-06-04T04:02:25.774Z,20.16
2018-06-04T04:04:55.661Z,20.28
2018-06-04T04:07:25.527Z,20.23
2018-06-04T04:09:55.558Z,20.23
2018-06-04T04:12:25.607Z,20.40
2018-06-04T04:14:55.614Z,20.41
2018-06-04T04:17:25.670Z,20.51
2018-06-04T04:19:55.546Z,20.61
2018-06-04T04:22:25.454Z,20.61
2018-06-04T04:24:55.310Z,20.75
2018-06-04T04:27:25.187Z,20.85
2018-06-04T04:29:55.075Z,21.03
2018-06-04T04:32:24.998Z,21.33
2018-06-04T04:34:54.768Z,21.38
2018-06-04T04:37:24.685Z,21.67
2018-06-04T04:39:54.617Z,21.77
2018-06-04T04:42:24.538Z,21.95
2018-06-04T04:44:54.422Z,21.98
2018-06-04T04:47:24.330Z,21.99
2018-06-04T04:49:54.114Z,22.02
2018-06-04T04:52:24.058Z,22.08
2018-06-04T04:54:53.911Z,22.16
2018-06-04T04:57:23.877Z,22.14
2018-06-04T04:59:53.757Z,22.12
2018-06-04T05:02:24.560Z,22.38
2018-06-04T05:04:55.767Z,22.54
2018-06-04T05:07:26.640Z,22.48
2018-06-04T05:09:57.307Z,22.50
2018-06-04T05:12:28.190Z,22.67
2018-06-04T05:14:58.519Z,22.85
2018-06-04T05:17:28.384Z,22.95
2018-06-04T05:19:58.248Z,23.03
2018-06-04T05:22:28.146Z,23.27
2018-06-04T05:24:58.021Z,23.31
2018-06-04T05:27:28.009Z,23.51
2018-06-04T05:29:58.049Z,23.60
2018-06-04T05:32:27.955Z,23.43
2018-06-04T05:34:57.939Z,23.55
2018-06-04T05:37:27.750Z,23.72
2018-06-04T05:39:57.898Z,23.78
2018-06-04T05:42:27.857Z,23.87
2018-06-04T05:44:57.888Z,23.78
2018-06-04T05:47:27.708Z,23.77
2018-06-04T05:49:57.809Z,23.85
2018-06-04T05:52:27.792Z,24.09
2018-06-04T05:54:57.740Z,24.22
2018-06-04T05:57:27.636Z,24.38
2018-06-04T05:59:57.516Z,24.40
2018-06-04T06:02:27.516Z,24.69
2018-06-04T06:04:57.525Z,24.71
2018-06-04T06:07:27.669Z,24.71
2018-06-04T06:09:57.570Z,24.91
2018-06-04T06:12:27.601Z,25.08
2018-06-04T06:14:57.538Z,25.32
2018-06-04T06:17:27.467Z,25.28
2018-06-04T06:19:57.281Z,25.58
2018-06-04T06:22:27.214Z,25.74
2018-06-04T06:24:57.141Z,25.74
2018-06-04T06:27:27.233Z,26.03
2018-06-04T06:29:57.168Z,26.36
2018-06-04T06:32:27.212Z,26.50
2018-06-04T06:34:57.067Z,26.76
2018-06-04T06:37:26.915Z,26.74
2018-06-04T06:39:56.770Z,26.88
2018-06-04T06:42:26.741Z,27.09
2018-06-04T06:44:56.746Z,27.00
2018-06-04T06:47:26.683Z,26.88
2018-06-04T06:49:56.638Z,27.11
2018-06-04T06:52:26.611Z,27.26
2018-06-04T06:54:56.640Z,27.51
2018-06-04T06:57:26.536Z,27.52
2018-06-04T06:59:56.559Z,27.53
2018-06-04T07:02:26.485Z,27.50
2018-06-04T07:04:56.415Z,27.78
2018-06-04T07:07:26.435Z,27.87
2018-06-04T07:09:56.359Z,27.87
2018-06-04T07:12:26.239Z,27.98
2018-06-04T07:14:56.236Z,28.35
2018-06-04T07:17:26.201Z,28.36
2018-06-04T07:19:56.130Z,28.09
2018-06-04T07:22:26.062Z,28.30
2018-06-04T07:24:56.040Z,28.53
2018-06-04T07:27:25.882Z,28.55
2018-06-04T07:29:55.906Z,28.59
2018-06-04T07:34:56.223Z,28.72
2018-06-04T07:37:26.120Z,28.82
2018-06-04T07:39:56.056Z,28.92
2018-06-04T07:42:26.080Z,28.93
2018-06-04T07:44:56.011Z,29.10
2018-06-04T07:47:26.098Z,28.98
2018-06-04T07:49:56.147Z,29.06
2018-06-04T07:52:26.085Z,29.42
2018-06-04T07:54:56.031Z,29.51
2018-06-04T07:57:26.033Z,29.43
2018-06-04T07:59:55.914Z,29.54
2018-06-04T08:02:25.854Z,29.61
2018-06-04T08:04:55.828Z,29.66
2018-06-04T08:07:25.801Z,29.73
2018-06-04T08:09:55.833Z,30.16
2018-06-04T08:12:25.852Z,30.27
2018-06-04T08:14:55.834Z,30.47
2018-06-04T08:17:25.784Z,30.25
2018-06-04T08:19:55.717Z,30.01
2018-06-04T08:22:25.675Z,30.62
2018-06-04T08:24:55.990Z,30.31
2018-06-04T08:27:26.140Z,30.37
2018-06-04T08:29:56.112Z,30.51
2018-06-04T08:32:26.058Z,30.54
2018-06-04T08:34:56.007Z,30.47
2018-06-04T08:37:25.788Z,30.68
2018-06-04T08:39:55.677Z,30.99
2018-06-04T08:42:25.750Z,31.26
2018-06-04T08:44:55.722Z,31.20
2018-06-04T08:47:25.641Z,31.34
2018-06-04T08:49:55.643Z,31.65
2018-06-04T08:52:25.667Z,31.68
2018-06-04T08:54:55.576Z,31.65
2018-06-04T08:57:25.679Z,31.97
2018-06-04T08:59:55.641Z,32.34
2018-06-04T09:02:25.487Z,32.19
2018-06-04T09:04:55.638Z,31.99
2018-06-04T09:07:25.837Z,31.73
2018-06-04T09:09:55.807Z,31.79
2018-06-04T09:12:25.762Z,31.75
2018-06-04T09:14:55.736Z,31.91
2018-06-04T09:17:25.621Z,31.98
2018-06-04T09:19:55.569Z,32.85
2018-06-04T09:22:25.473Z,32.32
2018-06-04T09:24:55.473Z,32.36
2018-06-04T09:27:25.380Z,32.63
2018-06-04T09:29:55.557Z,32.70
2018-06-04T09:32:25.503Z,32.52
2018-06-04T09:34:55.829Z,33.18
2018-06-04T09:37:25.750Z,32.62
2018-06-04T09:39:55.709Z,32.65
2018-06-04T09:42:25.652Z,32.21
2018-06-04T09:44:55.548Z,31.75
2018-06-04T09:47:25.527Z,31.87
2018-06-04T09:49:55.535Z,31.72
2018-06-04T09:52:25.642Z,31.93
2018-06-04T09:54:55.709Z,32.14
2018-06-04T09:57:25.624Z,32.31
2018-06-04T09:59:55.550Z,32.39
2018-06-04T10:02:25.571Z,33.26
2018-06-04T10:04:55.576Z,33.54
2018-06-04T10:07:25.546Z,33.31
2018-06-04T10:09:55.583Z,33.59
2018-06-04T10:12:25.498Z,33.95
2018-06-04T10:14:55.534Z,34.59
2018-06-04T10:17:25.494Z,35.02
2018-06-04T10:19:55.485Z,33.64
2018-06-04T10:22:25.408Z,33.41
2018-06-04T10:24:55.432Z,33.70
2018-06-04T10:27:25.364Z,33.67
2018-06-04T10:29:55.347Z,34.21
2018-06-04T10:32:25.266Z,33.92
2018-06-04T10:34:55.293Z,33.54
2018-06-04T10:37:25.297Z,33.65
2018-06-04T10:39:55.334Z,34.34
2018-06-04T10:42:25.437Z,34.94
2018-06-04T10:44:55.603Z,35.11
2018-06-04T10:47:25.588Z,36.07
2018-06-04T10:49:55.652Z,36.47
2018-06-04T10:52:25.675Z,35.83
2018-06-04T10:54:55.743Z,34.53
2018-06-04T10:57:26.530Z,33.94
2018-06-04T10:59:56.709Z,33.35
2018-06-04T11:02:26.724Z,32.99
2018-06-04T11:04:56.858Z,32.80
2018-06-04T11:07:26.950Z,32.81
2018-06-04T11:09:57.057Z,33.27
2018-06-04T11:12:27.197Z,33.36
2018-06-04T11:14:57.309Z,33.67
2018-06-04T11:17:27.308Z,33.27
2018-06-04T11:19:57.386Z,33.15
2018-06-04T11:22:27.463Z,33.41
2018-06-04T11:24:57.563Z,33.33
2018-06-04T11:27:27.591Z,33.59
2018-06-04T11:29:57.767Z,33.73
2018-06-04T11:32:27.808Z,33.64
2018-06-04T11:34:57.898Z,34.34
2018-06-04T11:37:27.938Z,34.20
2018-06-04T11:39:58.020Z,34.72
2018-06-04T11:42:28.092Z,34.36
2018-06-04T11:44:58.156Z,33.86
2018-06-04T11:47:28.088Z,33.57
2018-06-04T11:49:58.158Z,33.54
2018-06-04T11:52:29.892Z,33.71
2018-06-04T11:55:01.225Z,33.67
2018-06-04T12:00:04.236Z,33.61
2018-06-04T12:02:35.598Z,33.27
2018-06-04T12:05:06.567Z,33.22
2018-06-04T12:07:38.677Z,33.22
2018-06-04T12:10:09.930Z,32.74
2018-06-04T12:12:41.100Z,32.72
2018-06-04T12:15:12.570Z,32.73
2018-06-04T12:17:43.557Z,32.33
2018-06-04T12:20:14.699Z,31.09
2018-06-04T12:22:46.794Z,30.36
2018-06-04T12:25:16.972Z,30.27
2018-06-04T12:27:48.338Z,30.27
2018-06-04T12:30:19.880Z,30.29
2018-06-04T12:32:51.520Z,30.30
2018-06-04T12:35:22.614Z,30.43
2018-06-04T12:37:53.775Z,30.64
2018-06-04T12:40:24.982Z,31.05
2018-06-04T12:42:56.393Z,31.26
2018-06-04T12:45:27.776Z,32.04
2018-06-04T12:47:59.054Z,32.40
2018-06-04T12:50:30.506Z,32.03
2018-06-04T12:53:01.731Z,32.85
2018-06-04T12:55:32.585Z,32.77
2018-06-04T12:58:03.853Z,32.84
2018-06-04T13:00:35.699Z,33.05
2018-06-04T13:03:06.533Z,32.90
2018-06-04T13:05:37.968Z,33.13
2018-06-04T13:08:08.859Z,33.31
2018-06-04T13:10:39.604Z,33.30
2018-06-04T13:13:10.459Z,33.38
2018-06-04T13:15:41.858Z,33.50
2018-06-04T13:18:13.575Z,33.50
2018-06-04T13:20:44.499Z,33.35
2018-06-04T13:23:15.613Z,33.49
2018-06-04T13:25:46.665Z,33.29
2018-06-04T13:28:17.508Z,33.47
2018-06-04T13:30:48.971Z,33.33
2018-06-04T13:33:19.694Z,33.34
2018-06-04T13:35:50.907Z,33.81
2018-06-04T13:38:21.920Z,33.28
2018-06-04T13:40:53.401Z,33.13
2018-06-04T13:43:24.305Z,32.67
2018-06-04T13:45:55.198Z,32.32
2018-06-04T13:48:25.687Z,32.52
2018-06-04T13:50:56.689Z,32.42
2018-06-04T13:53:27.810Z,32.09
2018-06-04T13:55:58.875Z,32.12
2018-06-04T13:58:29.968Z,32.54
2018-06-04T14:01:00.185Z,32.34
2018-06-04T14:03:31.237Z,32.76
2018-06-04T14:06:02.493Z,32.66
2018-06-04T14:08:33.437Z,32.07
2018-06-04T14:11:04.395Z,32.29
2018-06-04T14:13:35.147Z,32.44
2018-06-04T14:16:06.173Z,32.63
2018-06-04T14:18:36.862Z,33.15
2018-06-04T14:21:08.093Z,33.82
2018-06-04T14:23:38.943Z,34.04
2018-06-04T14:26:11.325Z,33.83
2018-06-04T14:28:42.312Z,34.13
2018-06-04T14:31:13.099Z,33.93
2018-06-04T14:33:43.922Z,33.86
2018-06-04T14:36:14.765Z,33.82
2018-06-04T14:38:46.232Z,33.24
2018-06-04T14:41:17.002Z,32.66
2018-06-04T14:43:47.877Z,32.33
2018-06-04T14:46:18.163Z,32.30
2018-06-04T14:48:49.274Z,32.46
2018-06-04T14:51:20.860Z,32.03
2018-06-04T14:53:51.880Z,31.94
2018-06-04T14:56:22.875Z,31.95
2018-06-04T14:58:53.286Z,32.06
2018-06-04T15:01:24.099Z,31.85
2018-06-04T15:03:54.132Z,31.73
2018-06-04T15:06:25.043Z,31.32
2018-06-04T15:08:56.031Z,30.80
2018-06-04T15:11:26.845Z,30.72
2018-06-04T15:13:57.803Z,31.14
2018-06-04T15:16:28.928Z,31.25
2018-06-04T15:18:59.701Z,31.64
2018-06-04T15:21:30.915Z,31.60
2018-06-04T15:24:01.910Z,31.42
2018-06-04T15:26:32.619Z,31.43
2018-06-04T15:29:04.141Z,31.19
2018-06-04T15:31:35.023Z,31.41
2018-06-04T15:34:05.871Z,31.51
2018-06-04T15:36:36.553Z,31.40
2018-06-04T15:39:09.384Z,31.56
2018-06-04T15:41:40.282Z,31.68
2018-06-04T15:44:11.262Z,31.54
2018-06-04T15:46:42.556Z,31.58
2018-06-04T15:49:13.262Z,31.56
2018-06-04T15:51:44.208Z,31.46
2018-06-04T15:54:15.082Z,31.41
2018-06-04T15:56:45.789Z,31.29
2018-06-04T15:59:16.456Z,31.36
2018-06-04T16:01:48.257Z,31.37
2018-06-04T16:04:19.141Z,31.02
2018-06-04T16:06:50.087Z,30.93
2018-06-04T16:09:21.918Z,30.76
2018-06-04T16:11:53.049Z,31.12
2018-06-04T16:14:24.136Z,31.35
2018-06-04T16:16:55.032Z,31.60
2018-06-04T16:19:26.961Z,31.68
2018-06-04T16:21:57.847Z,30.84
2018-06-04T16:24:29.254Z,30.56
2018-06-04T16:27:00.503Z,30.77
2018-06-04T16:29:31.807Z,30.91
2018-06-04T16:32:03.980Z,31.12
2018-06-04T16:34:35.427Z,31.12
2018-06-04T16:37:06.782Z,31.39
2018-06-04T16:39:38.133Z,31.33
2018-06-04T16:42:09.310Z,31.01
2018-06-04T16:44:40.575Z,31.01
2018-06-04T16:47:11.977Z,31.07
2018-06-04T16:49:43.196Z,31.31
2018-06-04T16:52:14.445Z,31.51
2018-06-04T16:54:45.825Z,31.42
2018-06-04T16:57:17.541Z,31.00
2018-06-04T16:59:48.934Z,30.77
2018-06-04T17:02:20.176Z,30.28
2018-06-04T17:04:50.624Z,29.82
2018-06-04T17:07:21.979Z,29.65
2018-06-04T17:09:52.984Z,29.46
2018-06-04T17:12:23.957Z,29.25
2018-06-04T17:14:54.819Z,28.97
2018-06-04T17:17:25.610Z,28.82
2018-06-04T17:19:55.842Z,28.75
2018-06-04T17:22:27.150Z,28.43
2018-06-04T17:24:58.128Z,28.26
2018-06-04T17:27:28.963Z,28.26
2018-06-04T17:29:59.771Z,27.84
2018-06-04T17:32:30.782Z,27.46
2018-06-04T17:35:01.975Z,27.16
2018-06-04T17:37:33.672Z,27.02
2018-06-04T17:40:05.051Z,26.79
2018-06-04T17:42:36.688Z,26.83
2018-06-04T17:45:07.983Z,26.85
2018-06-04T17:47:39.119Z,26.77
2018-06-04T17:50:10.740Z,27.00
2018-06-04T17:52:41.604Z,27.04
2018-06-04T17:55:12.485Z,26.96
2018-06-04T17:57:43.268Z,26.95
2018-06-04T18:00:14.345Z,26.98
2018-06-04T18:02:44.576Z,26.86
2018-06-04T18:05:15.418Z,26.34
2018-06-04T18:07:46.090Z,25.81
2018-06-04T18:10:16.943Z,25.47
2018-06-04T18:12:47.828Z,25.05
2018-06-04T18:15:19.565Z,24.85
2018-06-04T18:17:50.846Z,24.59
2018-06-04T18:20:21.827Z,24.48
2018-06-04T18:22:52.190Z,24.20
2018-06-04T18:25:23.803Z,24.10
2018-06-04T18:27:54.330Z,23.75
2018-06-04T18:30:24.926Z,23.70
2018-06-04T18:32:56.177Z,23.44
2018-06-04T18:35:27.509Z,23.48
2018-06-04T18:37:58.423Z,23.46
2018-06-04T18:40:29.641Z,23.43
2018-06-04T18:42:59.864Z,23.51
2018-06-04T18:45:30.742Z,23.45
2018-06-04T18:48:01.964Z,23.28
2018-06-04T18:50:32.728Z,23.03
2018-06-04T18:53:03.313Z,22.91
2018-06-04T18:55:34.568Z,22.84
2018-06-04T18:58:05.753Z,22.90
2018-06-04T19:00:36.851Z,23.14
2018-06-04T19:03:08.314Z,23.39
2018-06-04T19:05:39.001Z,23.56
2018-06-04T19:08:10.344Z,23.41
2018-06-04T19:10:41.112Z,23.32
2018-06-04T19:13:11.730Z,23.45
2018-06-04T19:15:42.880Z,23.41
2018-06-04T19:18:13.738Z,23.37
2018-06-04T19:20:45.702Z,23.47
2018-06-04T19:23:17.032Z,23.39
2018-06-04T19:25:48.089Z,23.45
2018-06-04T19:28:19.043Z,23.30
2018-06-04T19:30:50.271Z,22.88
2018-06-04T19:33:21.041Z,22.58
2018-06-04T19:35:51.870Z,22.66
2018-06-04T19:38:23.012Z,22.78
2018-06-04T19:40:53.671Z,22.70
2018-06-04T19:43:24.585Z,22.60
2018-06-04T19:45:56.461Z,22.50
2018-06-04T19:48:27.588Z,22.33
2018-06-04T19:50:58.276Z,22.30
2018-06-04T19:53:29.256Z,22.31
2018-06-04T19:56:00.058Z,22.31
2018-06-04T19:58:31.120Z,22.36
2018-06-04T20:01:02.715Z,22.39
2018-06-04T20:03:34.290Z,22.40
2018-06-04T20:06:05.968Z,22.30
2018-06-04T20:08:37.076Z,22.18
2018-06-04T20:11:08.569Z,22.53
2018-06-04T20:13:39.279Z,22.44
2018-06-04T20:16:09.965Z,22.44
2018-06-04T20:18:40.850Z,22.64
2018-06-04T20:21:11.569Z,22.74
2018-06-04T20:23:43.167Z,22.53
2018-06-04T20:26:14.135Z,22.42
2018-06-04T20:28:44.871Z,22.54
2018-06-04T20:31:14.837Z,22.36
2018-06-04T20:33:45.136Z,22.42
2018-06-04T20:36:15.475Z,22.50
2018-06-04T20:38:47.156Z,22.57
2018-06-04T20:41:17.372Z,22.61
2018-06-04T20:43:47.963Z,22.49
2018-06-04T20:46:19.165Z,22.40
2018-06-04T20:48:51.288Z,22.29
2018-06-04T20:51:22.260Z,22.16
2018-06-04T20:53:52.907Z,22.19
2018-06-04T20:56:23.964Z,22.21
2018-06-04T20:58:55.488Z,21.98
2018-06-04T21:01:26.189Z,21.90
2018-06-04T21:03:57.162Z,21.98
2018-06-04T21:06:28.535Z,21.98
2018-06-04T21:08:59.283Z,21.84
2018-06-04T21:11:30.047Z,21.91
2018-06-04T21:14:01.037Z,21.82
2018-06-04T21:16:31.633Z,21.69
2018-06-04T21:19:02.368Z,21.66
2018-06-04T21:21:33.240Z,21.56
2018-06-04T21:24:04.444Z,21.29
2018-06-04T21:26:34.946Z,21.46
2018-06-04T21:29:06.910Z,21.32
2018-06-04T21:31:38.351Z,21.33
2018-06-04T21:34:09.038Z,21.50
2018-06-04T21:36:39.759Z,21.58
2018-06-04T21:39:10.832Z,21.57
2018-06-04T21:41:41.607Z,21.41
2018-06-04T21:44:13.417Z,21.34
2018-06-04T21:46:44.104Z,21.36
2018-06-04T21:49:20.577Z,21.36
2018-06-04T21:51:51.355Z,21.25
2018-06-04T21:54:22.215Z,21.20
2018-06-04T21:56:53.379Z,21.24
2018-06-04T21:59:24.594Z,21.21
2018-06-04T22:01:55.631Z,21.15
2018-06-04T22:04:26.527Z,21.01
2018-06-04T22:06:57.434Z,20.90
2018-06-04T22:09:29.166Z,20.85
2018-06-04T22:11:59.139Z,20.75
2018-06-04T22:14:30.238Z,20.50
2018-06-04T22:17:01.129Z,20.45
2018-06-04T22:19:31.991Z,20.63
2018-06-04T22:22:02.473Z,20.79
2018-06-04T22:24:33.089Z,20.86
2018-06-04T22:27:04.627Z,20.84
2018-06-04T22:29:35.258Z,20.78
2018-06-04T22:32:06.101Z,20.83
2018-06-04T22:34:36.873Z,20.91
2018-06-04T22:37:07.700Z,20.92
2018-06-04T22:39:38.508Z,20.72
2018-06-04T22:42:09.362Z,20.69
2018-06-04T22:44:40.484Z,20.75
2018-06-04T22:47:11.756Z,20.85
2018-06-04T22:49:43.426Z,20.91
2018-06-04T22:52:14.377Z,20.93
2018-06-04T22:54:45.274Z,20.84
2018-06-04T22:57:16.818Z,20.80
2018-06-04T22:59:47.680Z,20.81
2018-06-04T23:02:18.380Z,20.58
2018-06-04T23:04:48.635Z,20.50
2018-06-04T23:07:20.066Z,20.50
2018-06-04T23:09:51.017Z,20.45
2018-06-04T23:12:21.852Z,20.65
2018-06-04T23:14:52.468Z,20.48
2018-06-04T23:17:23.340Z,20.04
2018-06-04T23:19:54.212Z,20.03
2018-06-04T23:22:25.704Z,19.99
2018-06-04T23:24:56.500Z,19.48
2018-06-04T23:27:27.407Z,19.55
2018-06-04T23:29:58.108Z,19.50
2018-06-04T23:32:28.910Z,19.51
2018-06-04T23:34:59.504Z,19.51
2018-06-04T23:37:30.901Z,19.31
2018-06-04T23:40:01.045Z,19.19
2018-06-04T23:42:31.825Z,19.32
2018-06-04T23:45:02.624Z,19.39
2018-06-04T23:47:33.464Z,19.35
2018-06-04T23:50:04.421Z,19.29
2018-06-04T23:52:35.169Z,19.49
2018-06-04T23:55:06.255Z,19.45
2018-06-04T23:57:36.962Z,19.20
